Tiempo atmosférico en la estación meteorológica de Alcala de Henares, Madrid (605 m.)



Fecha
DESCASC
Temp. máxima en grados centígrados (hora)
DESCASC
Temp. mínima en grados centígrados (hora)
DESCASC
Temp. media en grados centígrados
DESCASC
Racha de viento máxima en m/sg (hora)
DESCASC
Velocidad máxima media en intervalos de 10 minutos(hora)
DESCASC
Precipitaciones diarias en mm
DESCASC
Precipitaciones de 00:00 a 06:00 en mm
DESCASC
Precipitaciones de 06:00 a 12:00 en mm
DESCASC
Precipitaciones de 12:00 a 18:00 en mm
DESCASC
Precipitaciones de 18:00 a 24:00 en mm
DESCASC
22-11-2020 15.8 (16:00) -0.3 (07:20) 7.8 3.89 (09:30) 2.5 (09:30) 0 0 0 0 0
21-11-2020 16.4 (16:10) 0.7 (07:20) 8.5 5 (09:20) 3.33 (09:20) 0 0 0 0 0
20-11-2020 17.1 (15:40) 3.2 (08:10) 10.2 11.11 (13:10) 8.61 (13:10) 0 0 0 0 0
19-11-2020 21.5 (14:40) 3.7 (00:00) 12.6 9.17 (12:40) 6.39 (12:50) 0 0 0 0 0
18-11-2020 15 (17:10) 5.5 (00:00) 10.3 4.72 (04:30) 3.06 (04:30) 0.2 0.2 0 0 0
17-11-2020 18.5 (15:20) 5.8 (00:00) 12.2 5 (16:00) 3.61 (16:20) 0 0 0 0 0
16-11-2020 19.4 (15:10) 9.2 (00:00) 14.3 3.61 (16:00) 2.22 (16:10) 0 0 0 0 0
15-11-2020 16.2 (16:20) 11.5 (00:00) 13.9 8.33 (14:50) 5 (14:50) 0 0 0 0 0
14-11-2020 13.4 (14:20) 8.1 (00:00) 10.8 3.06 (08:20) 1.94 (05:50) 0.8 0 0.4 0.4 0
13-11-2020 17 (14:40) 5.9 (00:00) 11.5 4.17 (14:40) 2.22 (00:20) 0 0 0 0 0
12-11-2020 16 (15:50) 6.3 (00:00) 11.2 3.89 (06:20) 2.78 (12:10) 0 0 0 0 0
11-11-2020 17.3 (16:10) 3.6 (00:00) 10.4 3.89 (14:50) 2.5 (09:40) 0 0 0 0 0
10-11-2020 18.3 (16:00) 5.2 (00:00) 11.7 3.89 (04:50) 2.5 (05:30) 0.2 0.2 0 0 0
09-11-2020 16.8 (16:20) 7.8 (00:00) 12.3 3.33 (07:40) 2.22 (07:40) 3.6 2.4 1.2 0 0
08-11-2020 15.9 (16:10) 6.2 (00:00) 11 4.72 (13:10) 2.5 (13:10) 0 0 0 0 0
07-11-2020 17.1 (00:00) 8.7 (00:00) 12.9 11.11 (00:50) 6.11 (00:50) 12 11.6 0.4 0 0
06-11-2020 21.1 (13:00) 9.2 (00:00) 15.2 18.61 (15:20) 10.83 (15:30) 0.2 0 0 0.2 0
05-11-2020 15.6 (14:00) 7.9 (00:00) 11.8 13.33 (19:50) 6.94 (19:30) 9.6 0 1.2 8 0.4
04-11-2020 12.3 (13:30) 7.3 (00:00) 9.8 9.44 (00:30) 6.67 (09:20) 4.8 0 0 2 2.8
03-11-2020 15.6 (11:00) 10.3 (00:00) 13 10.56 (16:00) 6.67 (15:30) 4.4 0 0.2 4.2 0
02-11-2020 21.3 (16:50) 6.3 (00:00) 13.8 4.44 (13:30) 2.78 (14:00) 0 0 0 0 0
01-11-2020 21.5 (15:20) 6.7 (00:00) 14.1 4.17 (14:00) 2.78 (14:00) 0 0 0 0 0
31-10-2020 22.6 (16:50) 5.5 (00:00) 14.1 5 (14:40) 3.33 (14:50) 0 0 0 0 0
30-10-2020 20.5 (16:20) 4.5 (00:00) 12.5 5 (08:40) 3.06 (08:30) 0 0 0 0 0
29-10-2020 17.7 (16:30) 5.6 (00:00) 11.7 4.17 (09:10) 2.78 (09:10) 0 0 0 0 0
28-10-2020 13.4 (15:30) 4.9 (00:00) 9.1 3.89 (12:10) 2.22 (12:20) 0 0 0 0 0
27-10-2020 -- (--) -- (--) -- -- (--) -- (--) 0 0 0 0 0
26-10-2020 -- (--) -- (--) -- -- (--) -- (--) 0 0 0 0 0

Gráficas

Temp. máximas Temp. mínimas Temp. medias Precipitaciones Rachas de viento máximas Velocidades máximas media en intervalos de 10 minutos

Datos horarios

Fecha y hora oficial Temperatura (ºC) Velocidad del viento (km/h) Dirección del viento Racha (km/h) Dirección de racha Precipitación (mm) Presión (hPa) Tendencia (hPa) Humedad (%)
2020-11-24 23:00:00 2 4 Este 5 Nordeste 0 -- -- 90
2020-11-24 22:00:00 2.8 -- -- -- -- 0 -- -- 88
2020-11-24 21:00:00 4.3 2 Nordeste 3 Nordeste 0 -- -- 86
2020-11-24 20:00:00 5.7 0 Calma 3 Oeste 0 -- -- 82
2020-11-24 19:00:00 7.2 0 Calma 4 Sur 0 -- -- 77
2020-11-24 18:00:00 10.5 0 Calma 9 Sudoeste 0 -- -- 67
2020-11-24 17:00:00 13 6 Oeste 12 Oeste 0 -- -- 60
2020-11-24 16:00:00 14 6 Oeste 9 Oeste 0 -- -- 58
2020-11-24 15:00:00 13.7 4 Oeste 12 Sudoeste 0 -- -- 61
2020-11-24 14:00:00 12 4 Oeste 10 Oeste 0 -- -- 64
2020-11-24 13:00:00 10.9 2 Sur 6 Oeste 0 -- -- 66
2020-11-24 12:00:00 8.8 2 Nordeste 9 Nordeste 0 -- -- 73
2020-11-24 11:00:00 6.1 5 Nordeste 10 Este 0 -- -- 82
2020-11-24 10:00:00 3.5 5 Nordeste 11 Nordeste 0 -- -- 94
2020-11-24 09:00:00 0.2 3 Nordeste 5 Nordeste 0 -- -- 96
2020-11-24 08:00:00 -1.4 3 Nordeste 5 Este 0 -- -- 94
2020-11-24 07:00:00 -0.6 0 Calma 8 Nordeste 0 -- -- 94
2020-11-24 06:00:00 0.6 5 Nordeste 8 Nordeste 0 -- -- 95
2020-11-24 05:00:00 0.4 4 Nordeste 8 Nordeste 0 -- -- 94
2020-11-24 04:00:00 0.6 5 Nordeste 8 Nordeste 0 -- -- 93
2020-11-24 03:00:00 1 4 Este 6 Nordeste 0 -- -- 93
2020-11-24 02:00:00 1.4 3 Este 5 Nordeste 0 -- -- 91
2020-11-24 01:00:00 2.1 3 Nordeste 5 Nordeste 0 -- -- 91
2020-11-24 00:00:00 2.7 3 Este 5 Nordeste 0 -- -- 89
2020-11-23 23:00:00 3.3 2 Nordeste 6 Nordeste 0 -- -- 86
2020-11-23 22:00:00 4.1 0 Calma 5 Nordeste 0 -- -- 84
2020-11-23 21:00:00 5.5 6 Nordeste 8 Nordeste 0 -- -- 82
2020-11-23 20:00:00 6.9 4 Nordeste 7 Nordeste 0 -- -- 77
2020-11-23 19:00:00 9.4 0 Calma 5 Sur 0 -- -- 68
2020-11-23 18:00:00 13 3 Sur 7 Oeste 0 -- -- 56
2020-11-23 17:00:00 16.3 6 Oeste 10 Oeste 0 -- -- 46
2020-11-23 16:00:00 16.6 6 Oeste 14 Sudoeste 0 -- -- 45
2020-11-23 15:00:00 16.3 8 Oeste 14 Sudoeste 0 -- -- 50
2020-11-23 14:00:00 15 4 Oeste 10 Oeste 0 -- -- 51
2020-11-23 13:00:00 13.3 2 Sudoeste 6 Sudoeste 0 -- -- 54
2020-11-23 12:00:00 10.3 3 Este 10 Nordeste 0 -- -- 62
2020-11-23 11:00:00 7.6 6 Nordeste 10 Nordeste 0 -- -- 74
2020-11-23 10:00:00 4 5 Nordeste 8 Nordeste 0 -- -- 90
2020-11-23 09:00:00 0.3 3 Este 4 Nordeste 0 -- -- 95
2020-11-23 08:00:00 -0.6 2 Este 4 Este 0 -- -- 93
2020-11-23 07:00:00 -0.2 0 Calma 4 Nordeste 0 -- -- 92
2020-11-23 06:00:00 0.7 0 Calma 8 Nordeste 0 -- -- 91
2020-11-23 05:00:00 1.6 8 Nordeste 13 Nordeste 0 -- -- 92
2020-11-23 04:00:00 1.7 4 Nordeste 13 Este 0 -- -- 92
2020-11-23 03:00:00 1.5 9 Este 12 Este 0 -- -- 93
2020-11-23 02:00:00 1.7 3 Nordeste 9 Nordeste 0 -- -- 92
2020-11-23 01:00:00 1.7 6 Nordeste 9 Nordeste 0 -- -- 92
2020-11-23 00:00:00 2.1 5 Nordeste 7 Nordeste 0 -- -- 91
2020-11-22 23:00:00 2.7 3 Este 8 Nordeste 0 -- -- 88
2020-11-22 22:00:00 3.2 2 Este 6 Nordeste 0 -- -- 86
2020-11-22 21:00:00 4.3 4 Nordeste 5 Nordeste 0 -- -- 83
2020-11-22 20:00:00 6.1 4 Nordeste 6 Nordeste 0 -- -- 79
2020-11-22 19:00:00 8 0 Calma 4 Sur 0 -- -- 72
2020-11-22 18:00:00 13.1 0 Calma 7 Oeste 0 -- -- 56
2020-11-22 17:00:00 15.3 5 Oeste 10 Sudoeste 0 -- -- 49
2020-11-22 16:00:00 15.8 3 Sudoeste 8 Sudoeste 0 -- -- 49
2020-11-22 15:00:00 15.1 2 Noroeste 10 Oeste 0 -- -- 50
2020-11-22 14:00:00 13.7 3 Norte 8 Noroeste 0 -- -- 56
2020-11-22 13:00:00 12.3 3 Nordeste 8 Nordeste 0 -- -- 59
2020-11-22 12:00:00 10 3 Nordeste 10 Este 0 -- -- 68
2020-11-22 11:00:00 7 6 Nordeste 12 Este 0 -- -- 76
2020-11-22 10:00:00 4 6 Este 14 Nordeste 0 -- -- 84
2020-11-22 09:00:00 0.8 4 Nordeste 9 Nordeste 0 -- -- 92
2020-11-22 08:00:00 -0.3 6 Nordeste 9 Nordeste 0 -- -- 91
2020-11-22 07:00:00 -0.1 6 Nordeste 9 Nordeste 0 -- -- 91
2020-11-22 06:00:00 0.3 5 Nordeste 9 Nordeste 0 -- -- 89
2020-11-22 05:00:00 0.6 6 Nordeste 12 Nordeste 0 -- -- 89
2020-11-22 04:00:00 0.9 6 Nordeste 10 Nordeste 0 -- -- 89
2020-11-22 03:00:00 1.1 5 Nordeste 11 Nordeste 0 -- -- 88
2020-11-22 02:00:00 1.4 7 Nordeste 9 Nordeste 0 -- -- 89
2020-11-22 01:00:00 1.8 4 Este 6 Este 0 -- -- 88
2020-11-22 00:00:00 2.1 5 Nordeste 7 Nordeste 0 -- -- 88
2020-11-21 23:00:00 2.6 3 Este 9 Nordeste 0 -- -- 85
2020-11-21 22:00:00 3.3 4 Nordeste 7 Nordeste 0 -- -- 83
2020-11-21 21:00:00 4.4 4 Nordeste 8 Nordeste 0 -- -- 80
2020-11-21 20:00:00 6 4 Nordeste 5 Nordeste 0 -- -- 74
2020-11-21 19:00:00 8.7 2 Este 4 Este 0 -- -- 64
2020-11-21 18:00:00 13.5 0 Calma 2 Norte 0 -- -- 52
2020-11-21 17:00:00 16.2 0 Calma 8 Oeste 0 -- -- 40
2020-11-21 16:00:00 16.1 3 Oeste 10 Noroeste 0 -- -- 37
2020-11-21 15:00:00 16 4 Sudoeste 14 Oeste 0 -- -- 38
2020-11-21 14:00:00 15.1 5 Sudoeste 15 Oeste 0 -- -- 39
2020-11-21 13:00:00 14.1 7 Oeste 16 Oeste 0 -- -- 38
2020-11-21 12:00:00 12.4 3 Sudoeste 7 Nordeste 0 -- -- 41
2020-11-21 11:00:00 9.6 4 Este 16 Este 0 -- -- 52
2020-11-21 10:00:00 6.5 8 Nordeste 18 Nordeste 0 -- -- 64
2020-11-21 09:00:00 3.6 10 Este 13 Nordeste 0 -- -- 70
2020-11-21 08:00:00 2.9 9 Nordeste 14 Nordeste 0 -- -- 72
2020-11-21 07:00:00 1.2 0 Calma 7 Sudoeste 0 -- -- 86
2020-11-21 06:00:00 2.4 0 Calma 12 Sudoeste 0 -- -- 84
2020-11-21 05:00:00 1.3 3 Nordeste 6 Nordeste 0 -- -- 89
2020-11-21 04:00:00 2.2 0 Calma 4 Nordeste 0 -- -- 87
2020-11-21 03:00:00 2.4 4 Nordeste 8 Este 0 -- -- 88
2020-11-21 02:00:00 3 2 Este 5 Nordeste 0 -- -- 86
2020-11-21 01:00:00 3.7 4 Este 6 Nordeste 0 -- -- 80
2020-11-21 00:00:00 4.9 2 Este 10 Nordeste 0 -- -- 77
2020-11-20 23:00:00 6.2 6 Nordeste 12 Este 0 -- -- 71
2020-11-20 22:00:00 7 0 Calma 14 Nordeste 0 -- -- 67
2020-11-20 21:00:00 7.7 10 Nordeste 12 Nordeste 0 -- -- 65
2020-11-20 20:00:00 8.7 5 Este 10 Nordeste 0 -- -- 61
2020-11-20 19:00:00 10.8 3 Sudeste 15 Nordeste 0 -- -- 54
2020-11-20 18:00:00 13.6 9 Nordeste 22 Nordeste 0 -- -- 43
2020-11-20 17:00:00 15.8 15 Nordeste 35 Nordeste 0 -- -- 38
2020-11-20 16:00:00 16.9 26 Nordeste 40 Nordeste 0 -- -- 32
2020-11-20 15:00:00 16.9 19 Nordeste 37 Nordeste 0 -- -- 34
2020-11-20 14:00:00 16.2 24 Nordeste 40 Nordeste 0 -- -- 35
2020-11-20 13:00:00 15.5 27 Nordeste 39 Nordeste 0 -- -- 32
2020-11-20 12:00:00 14.4 22 Nordeste 36 Nordeste 0 -- -- 40
2020-11-20 11:00:00 11.8 15 Nordeste 23 Nordeste 0 -- -- 64
2020-11-20 10:00:00 8.8 12 Nordeste 17 Nordeste 0 -- -- 74
2020-11-20 09:00:00 5.4 8 Nordeste 17 Este 0 -- -- 89
2020-11-20 08:00:00 3.4 5 Nordeste 9 Este 0 -- -- 90
2020-11-20 07:00:00 4.7 3 Nordeste 18 Nordeste 0 -- -- 88
2020-11-20 06:00:00 5.7 14 Nordeste 20 Nordeste 0 -- -- 87
2020-11-20 05:00:00 5.8 7 Nordeste 13 Nordeste 0 -- -- 90
2020-11-20 04:00:00 6.4 10 Nordeste 16 Nordeste 0 -- -- 90
2020-11-20 03:00:00 7 10 Nordeste 15 Nordeste 0 -- -- 90
2020-11-20 02:00:00 7.3 8 Nordeste 11 Nordeste 0 -- -- 91
2020-11-20 01:00:00 7.6 5 Nordeste 12 Nordeste 0 -- -- 88
2020-11-20 00:00:00 8.9 8 Nordeste 13 Nordeste 0 -- -- 88
2020-11-19 23:00:00 10.2 7 Nordeste 13 Nordeste 0 -- -- 84
2020-11-19 22:00:00 11.3 9 Este 17 Nordeste 0 -- -- 81
2020-11-19 21:00:00 11.8 11 Nordeste 13 Nordeste 0 -- -- 82
2020-11-19 20:00:00 13 3 Este 9 Nordeste 0 -- -- 75
2020-11-19 19:00:00 14.6 3 Nordeste 10 Nordeste 0 -- -- 71
2020-11-19 18:00:00 18.4 9 Norte 17 Norte 0 -- -- 59
2020-11-19 17:00:00 20.5 10 Nordeste 17 Norte 0 -- -- 52
2020-11-19 16:00:00 21.3 13 Nordeste 25 Nordeste 0 -- -- 52
2020-11-19 15:00:00 21.5 15 Nordeste 24 Nordeste 0 -- -- 51
2020-11-19 14:00:00 21 17 Nordeste 32 Nordeste 0 -- -- 53
2020-11-19 13:00:00 20.2 19 Nordeste 33 Nordeste 0 -- -- 55
2020-11-19 12:00:00 18.3 19 Nordeste 33 Nordeste 0 -- -- 63
2020-11-19 11:00:00 14.1 12 Nordeste 19 Nordeste 0 -- -- 77
2020-11-19 10:00:00 9.6 7 Nordeste 17 Nordeste 0 -- -- 93
2020-11-19 09:00:00 6.4 5 Nordeste 9 Nordeste 0 -- -- 99
2020-11-19 08:00:00 4.9 5 Nordeste 10 Nordeste 0 -- -- 98
2020-11-19 07:00:00 3.8 0 Calma 4 Este 0 -- -- 97
2020-11-19 06:00:00 4.1 3 Nordeste 5 Sudeste 0 -- -- 97
2020-11-19 05:00:00 4.2 3 Nordeste 5 Este 0 -- -- 97
2020-11-19 04:00:00 5.1 0 Calma 3 Norte 0 -- -- 97
2020-11-19 03:00:00 5.6 2 Nordeste 7 Nordeste 0 -- -- 97
2020-11-19 02:00:00 6.3 4 Nordeste 7 Este 0 -- -- 98
2020-11-19 01:00:00 7.2 5 Nordeste 10 Nordeste 0 -- -- 96
2020-11-19 00:00:00 6.4 3 Este 6 Nordeste 0 -- -- 95
2020-11-18 23:00:00 6.8 4 Nordeste 5 Nordeste 0 -- -- 95
2020-11-18 22:00:00 7.2 2 Este 5 Nordeste 0 -- -- 94
2020-11-18 21:00:00 8.2 0 Calma 3 Norte 0 -- -- 92
2020-11-18 20:00:00 9.6 0 Calma 5 Nordeste 0 -- -- 92
2020-11-18 19:00:00 10.8 0 Calma 4 Sudeste 0 -- -- 87
2020-11-18 18:00:00 13.4 0 Calma 4 Este 0 -- -- 83
2020-11-18 17:00:00 14.9 2 Este 7 Nordeste 0 -- -- 79
2020-11-18 16:00:00 14.5 4 Este 11 Nordeste 0 -- -- 82
2020-11-18 15:00:00 13.4 5 Este 11 Este 0 -- -- 87
2020-11-18 14:00:00 12.6 5 Este 9 Este 0 -- -- 91
2020-11-18 13:00:00 12 3 Nordeste 10 Este 0 -- -- 94
2020-11-18 12:00:00 11.4 4 Este 11 Este 0 -- -- 97
2020-11-18 11:00:00 10.3 9 Nordeste 13 Este 0 -- -- 98
2020-11-18 10:00:00 9.6 8 Este 14 Nordeste 0 -- -- 98
2020-11-18 09:00:00 9 7 Nordeste 14 Este 0 -- -- 98
2020-11-18 08:00:00 8.5 10 Nordeste 15 Nordeste 0 -- -- 98
2020-11-18 07:00:00 8.4 7 Este 12 Este 0 -- -- 98
2020-11-18 06:00:00 7.9 6 Este 10 Nordeste 0 -- -- 98
2020-11-18 05:00:00 7.2 8 Nordeste 17 Nordeste 0 -- -- 97
2020-11-18 04:00:00 6.6 6 Este 13 Nordeste 0 -- -- 97
2020-11-18 03:00:00 6 6 Nordeste 8 Nordeste 0 -- -- 96
2020-11-18 02:00:00 5.5 2 Este 4 Este 0.2 -- -- 96
2020-11-18 01:00:00 6.6 0 Calma 0 Calma 0 -- -- 95
2020-11-18 00:00:00 7.5 0 Calma 2 Nordeste 0 -- -- 96
2020-11-17 23:00:00 8.6 0 Calma 3 Sudoeste 0 -- -- 95
2020-11-17 22:00:00 7.8 0 Calma 0 Calma 0 -- -- 92
2020-11-17 21:00:00 8.8 0 Calma 2 Sur 0 -- -- 89
2020-11-17 20:00:00 10.4 0 Calma 2 Sur 0 -- -- 89
2020-11-17 19:00:00 12.1 0 Calma 5 Sudoeste 0 -- -- 85
2020-11-17 18:00:00 14.8 4 Sudoeste 12 Sudoeste 0 -- -- 80
2020-11-17 17:00:00 17.1 9 Oeste 18 Oeste 0 -- -- 73
2020-11-17 16:00:00 18.2 12 Oeste 18 Oeste 0 -- -- 69
2020-11-17 15:00:00 18.3 10 Oeste 15 Oeste 0 -- -- 69
2020-11-17 14:00:00 17.3 8 Oeste 13 Oeste 0 -- -- 71
2020-11-17 13:00:00 15.6 4 Sudoeste 8 Oeste 0 -- -- 75
2020-11-17 12:00:00 13 0 Calma 5 Nordeste 0 -- -- 79
2020-11-17 11:00:00 11.1 0 Calma 10 Este 0 -- -- 83
2020-11-17 10:00:00 9.1 9 Nordeste 14 Nordeste 0 -- -- 92
2020-11-17 09:00:00 6.9 3 Nordeste 11 Nordeste 0 -- -- 97
2020-11-17 08:00:00 5.9 4 Nordeste 8 Nordeste 0 -- -- 95
2020-11-17 07:00:00 6.6 6 Nordeste 14 Nordeste 0 -- -- 96
2020-11-17 06:00:00 6.6 8 Este 12 Nordeste 0 -- -- 96
2020-11-17 05:00:00 6.5 5 Nordeste 8 Nordeste 0 -- -- 96
2020-11-17 04:00:00 7.1 4 Nordeste 5 Nordeste 0 -- -- 95
2020-11-17 03:00:00 7 0 Calma 4 Nordeste 0 -- -- 94
2020-11-17 02:00:00 8 3 Nordeste 7 Nordeste 0 -- -- 94
2020-11-17 01:00:00 9 3 Este 10 Este 0 -- -- 94
2020-11-17 00:00:00 9.3 6 Nordeste 10 Nordeste 0 -- -- 94
2020-11-16 23:00:00 9.3 3 Este 9 Nordeste 0 -- -- 93
2020-11-16 22:00:00 9.9 5 Nordeste 8 Nordeste 0 -- -- 92
2020-11-16 21:00:00 11.1 3 Norte 5 Nordeste 0 -- -- 89
2020-11-16 20:00:00 12.3 3 Nordeste 8 Nordeste 0 -- -- 86
2020-11-16 19:00:00 14 2 Sudeste 4 Sur 0 -- -- 80
2020-11-16 18:00:00 16.9 0 Calma 7 Oeste 0 -- -- 71
2020-11-16 17:00:00 18.2 5 Oeste 12 Oeste 0 -- -- 64
2020-11-16 16:00:00 19.2 7 Sudoeste 13 Sudoeste 0 -- -- 61
2020-11-16 15:00:00 19.2 3 Sudoeste 10 Oeste 0 -- -- 58
2020-11-16 14:00:00 19 4 Sudoeste 12 Sudoeste 0 -- -- 62
2020-11-16 13:00:00 18.2 3 Sur 12 Sudoeste 0 -- -- 69
2020-11-16 12:00:00 16.5 4 Oeste 9 Oeste 0 -- -- 78
2020-11-16 11:00:00 14.3 2 Sur 8 Sudeste 0 -- -- 95
2020-11-16 10:00:00 13 0 Calma 5 Nordeste 0 -- -- 98
2020-11-16 09:00:00 12.1 0 Calma 4 Sudoeste 0 -- -- 97
2020-11-16 08:00:00 12.4 0 Calma 3 Este 0 -- -- 97
2020-11-16 07:00:00 12.9 2 Sur 4 Sur 0 -- -- 97
2020-11-16 06:00:00 13 4 Nordeste 6 Nordeste 0 -- -- 97
2020-11-16 05:00:00 12.9 2 Sudeste 7 Nordeste 0 -- -- 96
2020-11-16 04:00:00 13 2 Este 8 Norte 0 -- -- 96
2020-11-16 03:00:00 13.2 4 Norte 10 Oeste 0 -- -- 94
2020-11-16 02:00:00 14.5 7 Oeste 11 Sudoeste 0 -- -- 95
2020-11-16 01:00:00 14 2 Sudoeste 10 Sudoeste 0 -- -- 94
2020-11-16 00:00:00 14.2 0 Calma 8 Sudoeste 0 -- -- 92
2020-11-15 23:00:00 14.8 4 Sudoeste 11 Sudoeste 0 -- -- 92
2020-11-15 22:00:00 15.1 8 Sudoeste 19 Sudoeste 0 -- -- 90
2020-11-15 21:00:00 15 9 Sudoeste 19 Sudoeste 0 -- -- 90
2020-11-15 20:00:00 15.6 15 Sudoeste 26 Sudoeste 0 -- -- 87
2020-11-15 19:00:00 15.7 13 Sudoeste 24 Sudoeste 0 -- -- 87
2020-11-15 18:00:00 15.8 10 Sudoeste 23 Sudoeste 0 -- -- 87
2020-11-15 17:00:00 16.2 10 Sudoeste 17 Sudoeste 0 -- -- 87
2020-11-15 16:00:00 16.1 10 Sudoeste 27 Sudoeste 0 -- -- 87
2020-11-15 15:00:00 15.8 13 Sudoeste 30 Sudoeste 0 -- -- 87
2020-11-15 14:00:00 15.8 14 Sudoeste 26 Sudoeste 0 -- -- 87
2020-11-15 13:00:00 15.5 14 Sudoeste 23 Sudoeste 0 -- -- 86
2020-11-15 12:00:00 15.2 12 Sudoeste 19 Sudoeste 0 -- -- 87
2020-11-15 11:00:00 14 4 Sudoeste 12 Sudoeste 0 -- -- 92
2020-11-15 10:00:00 13.1 5 Sudoeste 10 Sudoeste 0 -- -- 94
2020-11-15 09:00:00 12.5 3 Sudoeste 9 Sudoeste 0 -- -- 95
2020-11-15 08:00:00 12.3 3 Sudoeste 10 Sur 0 -- -- 96
2020-11-15 07:00:00 12.1 4 Sudoeste 9 Sudoeste 0 -- -- 97
2020-11-15 06:00:00 12.2 5 Sudoeste 12 Sudoeste 0 -- -- 97
2020-11-15 05:00:00 11.5 3 Oeste 5 Noroeste 0 -- -- 97
2020-11-15 04:00:00 11.7 0 Calma 2 Sudoeste 0 -- -- 97
2020-11-15 03:00:00 11.7 0 Calma 4 Sudeste 0 -- -- 97
2020-11-15 02:00:00 11.7 0 Calma 4 Noroeste 0 -- -- 96
2020-11-15 01:00:00 11.9 3 Este 5 Este 0 -- -- 96
2020-11-15 00:00:00 12 0 Calma 0 Calma 0 -- -- 96
2020-11-14 23:00:00 11.9 0 Calma 5 Nordeste 0 -- -- 96
2020-11-14 22:00:00 11.9 0 Calma 3 Nordeste 0 -- -- 96
2020-11-14 21:00:00 11.8 0 Calma 2 Nordeste 0 -- -- 95
2020-11-14 20:00:00 12.2 0 Calma 5 Sudeste 0 -- -- 94
2020-11-14 19:00:00 12.4 2 Oeste 4 Oeste 0 -- -- 94
2020-11-14 18:00:00 12.6 2 Oeste 3 Oeste 0 -- -- 93
2020-11-14 17:00:00 12.6 0 Calma 4 Oeste 0.2 -- -- 93
2020-11-14 16:00:00 12.9 2 Sudoeste 5 Oeste 0 -- -- 91
2020-11-14 15:00:00 13.3 0 Calma 4 Este 0 -- -- 89
2020-11-14 14:00:00 13 0 Calma 5 Nordeste 0 -- -- 90
2020-11-14 13:00:00 12.4 0 Calma 6 Nordeste 0.2 -- -- 92
2020-11-14 12:00:00 11.5 4 Nordeste 5 Nordeste 0.2 -- -- 92
2020-11-14 11:00:00 11.4 2 Este 5 Nordeste 0.2 -- -- 91
2020-11-14 10:00:00 10.5 3 Nordeste 8 Nordeste 0 -- -- 91
2020-11-14 09:00:00 9.5 4 Nordeste 11 Nordeste 0 -- -- 92
2020-11-14 08:00:00 9.1 5 Nordeste 9 Nordeste 0 -- -- 93
2020-11-14 07:00:00 9 3 Este 7 Nordeste 0 -- -- 94
2020-11-14 06:00:00 8.8 6 Nordeste 10 Nordeste 0 -- -- 95
2020-11-14 05:00:00 8.4 2 Este 8 Nordeste 0 -- -- 95
2020-11-14 04:00:00 8.2 5 Nordeste 7 Nordeste 0 -- -- 95
2020-11-14 03:00:00 8.4 0 Calma 7 Nordeste 0 -- -- 94
2020-11-14 02:00:00 8.2 4 Nordeste 5 Nordeste 0 -- -- 94
2020-11-14 01:00:00 8.7 3 Nordeste 6 Nordeste 0 -- -- 93
2020-11-14 00:00:00 9.2 3 Este 5 Este 0 -- -- 92
2020-11-13 23:00:00 9.5 0 Calma 5 Nordeste 0 -- -- 91
2020-11-13 22:00:00 9.7 3 Nordeste 4 Nordeste 0 -- -- 90
2020-11-13 21:00:00 9.9 3 Nordeste 5 Nordeste 0 -- -- 89
2020-11-13 20:00:00 10.2 2 Nordeste 4 Nordeste 0 -- -- 87
2020-11-13 19:00:00 11 0 Calma 2 Nordeste 0 -- -- 83
2020-11-13 18:00:00 13.2 2 Sudeste 4 Sudeste 0 -- -- 77
2020-11-13 17:00:00 15.1 0 Calma 8 Oeste 0 -- -- 67
2020-11-13 16:00:00 16 4 Oeste 12 Oeste 0 -- -- 64
2020-11-13 15:00:00 16.2 7 Noroeste 15 Sudoeste 0 -- -- 64
2020-11-13 14:00:00 16.4 4 Sudoeste 10 Oeste 0 -- -- 64
2020-11-13 13:00:00 14.8 2 Norte 7 Sudoeste 0 -- -- 68
2020-11-13 12:00:00 13.6 0 Calma 6 Nordeste 0 -- -- 72
2020-11-13 11:00:00 11.1 4 Nordeste 10 Este 0 -- -- 83
2020-11-13 10:00:00 9 4 Nordeste 12 Nordeste 0 -- -- 91
2020-11-13 09:00:00 6.7 5 Nordeste 10 Nordeste 0 -- -- 96
2020-11-13 08:00:00 5.9 4 Este 7 Nordeste 0 -- -- 94
2020-11-13 07:00:00 6.4 5 Nordeste 9 Nordeste 0 -- -- 94
2020-11-13 06:00:00 6.6 6 Nordeste 9 Nordeste 0 -- -- 94
2020-11-13 05:00:00 6.5 5 Este 8 Nordeste 0 -- -- 93
2020-11-13 04:00:00 6.9 4 Este 10 Este 0 -- -- 93
2020-11-13 03:00:00 7.6 3 Nordeste 9 Norte 0 -- -- 92
2020-11-13 02:00:00 8 7 Nordeste 10 Nordeste 0 -- -- 93
2020-11-13 01:00:00 8.2 3 Nordeste 13 Nordeste 0 -- -- 92
2020-11-13 00:00:00 8.2 7 Nordeste 10 Nordeste 0 -- -- 94
2020-11-12 23:00:00 7.9 6 Nordeste 12 Nordeste 0 -- -- 94
2020-11-12 22:00:00 7.5 4 Nordeste 6 Nordeste 0 -- -- 93
2020-11-12 21:00:00 8.2 3 Nordeste 7 Nordeste 0 -- -- 91
2020-11-12 20:00:00 9.5 0 Calma 3 Nordeste 0 -- -- 87
2020-11-12 19:00:00 11.4 0 Calma 3 Sur 0 -- -- 83
2020-11-12 18:00:00 13.7 2 Sudeste 4 Sudeste 0 -- -- 77
2020-11-12 17:00:00 15.7 0 Calma 6 Sudeste 0 -- -- 66
2020-11-12 16:00:00 16 0 Calma 6 Este 0 -- -- 63
2020-11-12 15:00:00 15.7 4 Este 9 Nordeste 0 -- -- 66
2020-11-12 14:00:00 15.1 2 Sudoeste 8 Nordeste 0 -- -- 71
2020-11-12 13:00:00 13.9 5 Nordeste 14 Nordeste 0 -- -- 76
2020-11-12 12:00:00 11.8 5 Nordeste 12 Este 0 -- -- 81
2020-11-12 11:00:00 9.7 6 Este 13 Nordeste 0 -- -- 87
2020-11-12 10:00:00 8.3 4 Este 9 Este 0 -- -- 93
2020-11-12 09:00:00 7.1 3 Este 12 Nordeste 0 -- -- 94
2020-11-12 08:00:00 6.5 7 Nordeste 14 Nordeste 0 -- -- 94
2020-11-12 07:00:00 6.3 5 Este 14 Nordeste 0 -- -- 93
2020-11-12 06:00:00 6.5 9 Nordeste 13 Este 0 -- -- 94
2020-11-12 05:00:00 6.5 6 Nordeste 11 Nordeste 0 -- -- 94
2020-11-12 04:00:00 6.9 6 Nordeste 10 Este 0 -- -- 94
2020-11-12 03:00:00 6.7 4 Este 9 Nordeste 0 -- -- 94
2020-11-12 02:00:00 6.9 6 Nordeste 9 Nordeste 0 -- -- 94
2020-11-12 01:00:00 6.9 4 Nordeste 5 Nordeste 0 -- -- 94
2020-11-12 00:00:00 7.2 3 Este 8 Nordeste 0 -- -- 92
2020-11-11 23:00:00 7.3 3 Nordeste 8 Este 0 -- -- 93
2020-11-11 22:00:00 7.2 3 Nordeste 5 Este 0 -- -- 89
2020-11-11 21:00:00 8.4 0 Calma 6 Nordeste 0 -- -- 87
2020-11-11 20:00:00 9.8 0 Calma 5 Norte 0 -- -- 86
2020-11-11 19:00:00 10.9 0 Calma 4 Este 0 -- -- 82
2020-11-11 18:00:00 14 2 Sur 7 Oeste 0 -- -- 72
2020-11-11 17:00:00 16.4 4 Sudoeste 11 Sudoeste 0 -- -- 63
2020-11-11 16:00:00 17.2 5 Sudoeste 14 Oeste 0 -- -- 59
2020-11-11 15:00:00 16.7 7 Oeste 14 Oeste 0 -- -- 65
2020-11-11 14:00:00 15.6 7 Oeste 10 Sudoeste 0 -- -- 66
2020-11-11 13:00:00 14.5 3 Sudoeste 8 Sudoeste 0 -- -- 71
2020-11-11 12:00:00 12.8 3 Oeste 6 Oeste 0 -- -- 75
2020-11-11 11:00:00 10.5 0 Calma 9 Este 0 -- -- 82
2020-11-11 10:00:00 7.9 5 Este 13 Nordeste 0 -- -- 90
2020-11-11 09:00:00 5.3 5 Este 9 Nordeste 0 -- -- 96
2020-11-11 08:00:00 3.8 7 Este 10 Nordeste 0 -- -- 95
2020-11-11 07:00:00 4.1 3 Nordeste 8 Nordeste 0 -- -- 94
2020-11-11 06:00:00 4.7 7 Nordeste 11 Nordeste 0 -- -- 94
2020-11-11 05:00:00 5.1 7 Nordeste 10 Nordeste 0 -- -- 94
2020-11-11 04:00:00 5.6 4 Este 14 Nordeste 0 -- -- 94
2020-11-11 03:00:00 5.7 6 Este 10 Este 0 -- -- 95
2020-11-11 02:00:00 5.9 4 Este 11 Nordeste 0 -- -- 94
2020-11-11 01:00:00 5.8 5 Nordeste 8 Nordeste 0 -- -- 94
2020-11-11 00:00:00 6 8 Nordeste 10 Nordeste 0 -- -- 94
2020-11-10 23:00:00 6.4 5 Nordeste 6 Nordeste 0 -- -- 93
2020-11-10 22:00:00 7.3 0 Calma 4 Nordeste 0 -- -- 90
2020-11-10 21:00:00 8.4 3 Nordeste 5 Nordeste 0 -- -- 88
2020-11-10 20:00:00 9.7 2 Norte 3 Nordeste 0 -- -- 85
2020-11-10 19:00:00 11.7 0 Calma 3 Sur 0 -- -- 79
2020-11-10 18:00:00 15.8 3 Sudoeste 6 Oeste 0 -- -- 63
2020-11-10 17:00:00 17.9 0 Calma 6 Sur 0 -- -- 53
2020-11-10 16:00:00 18.3 0 Calma 7 Sudeste 0 -- -- 52
2020-11-10 15:00:00 17.3 2 Sudoeste 9 Nordeste 0 -- -- 52
2020-11-10 14:00:00 16.8 3 Sudoeste 10 Oeste 0 -- -- 59
2020-11-10 13:00:00 16 2 Sur 7 Sur 0 -- -- 64
2020-11-10 12:00:00 14 0 Calma 9 Nordeste 0 -- -- 74
2020-11-10 11:00:00 11.2 7 Nordeste 12 Nordeste 0 -- -- 82
2020-11-10 10:00:00 8.9 5 Nordeste 12 Nordeste 0 -- -- 93
2020-11-10 09:00:00 6.5 6 Nordeste 10 Nordeste 0 -- -- 97
2020-11-10 08:00:00 5.2 6 Nordeste 12 Nordeste 0 -- -- 96
2020-11-10 07:00:00 5.6 6 Nordeste 11 Nordeste 0 -- -- 96
2020-11-10 06:00:00 5.9 9 Nordeste 13 Nordeste 0.2 -- -- 96
2020-11-10 05:00:00 6.1 8 Nordeste 14 Nordeste 0 -- -- 97
2020-11-10 04:00:00 5.9 5 Nordeste 8 Nordeste 0 -- -- 96
2020-11-10 03:00:00 6.2 5 Nordeste 6 Nordeste 0 -- -- 96
2020-11-10 02:00:00 6.7 3 Este 6 Nordeste 0 -- -- 95
2020-11-10 01:00:00 7 5 Nordeste 6 Nordeste 0 -- -- 95
2020-11-10 00:00:00 7.8 0 Calma 6 Sudeste 0 -- -- 94
2020-11-09 23:00:00 8.7 3 Nordeste 6 Nordeste 0 -- -- 94
2020-11-09 22:00:00 8.8 4 Nordeste 5 Nordeste 0 -- -- 92
2020-11-09 21:00:00 9.9 3 Norte 6 Nordeste 0 -- -- 92
2020-11-09 20:00:00 9.9 4 Nordeste 6 Nordeste 0 -- -- 90
2020-11-09 19:00:00 11.6 0 Calma 5 Sur 0 -- -- 83
2020-11-09 18:00:00 15.1 0 Calma 7 Oeste 0 -- -- 74
2020-11-09 17:00:00 16.6 0 Calma 9 Oeste 0 -- -- 64
2020-11-09 16:00:00 16.7 5 Oeste 11 Sudoeste 0 -- -- 65
2020-11-09 15:00:00 15.5 3 Noroeste 8 Sudoeste 0 -- -- 73
2020-11-09 14:00:00 14.1 0 Calma 6 Noroeste 0 -- -- 84
2020-11-09 13:00:00 13.1 2 Este 5 Nordeste 0 -- -- 89
2020-11-09 12:00:00 11.7 0 Calma 5 Sudoeste 0 -- -- 93
2020-11-09 11:00:00 11.2 2 Sur 4 Sur 0 -- -- 95
2020-11-09 10:00:00 10.6 3 Nordeste 5 Norte 0 -- -- 97
2020-11-09 09:00:00 9.4 2 Sudeste 6 Sur 0 -- -- 96
2020-11-09 08:00:00 9.1 3 Nordeste 12 Este 0.2 -- -- 96
2020-11-09 07:00:00 9.3 0 Calma 8 Nordeste 1 -- -- 96
2020-11-09 06:00:00 9.1 0 Calma 6 Sudoeste 2.4 -- -- 95
2020-11-09 05:00:00 9 0 Calma 10 Nordeste 0 -- -- 94
2020-11-09 04:00:00 8.4 0 Calma 5 Sudeste 0 -- -- 94
2020-11-09 03:00:00 8.7 2 Norte 10 Nordeste 0 -- -- 93
2020-11-09 02:00:00 8.2 2 Norte 6 Nordeste 0 -- -- 93
2020-11-09 01:00:00 8.8 4 Nordeste 6 Nordeste 0 -- -- 90
2020-11-09 00:00:00 9.4 2 Este 5 Nordeste 0 -- -- 89
2020-11-08 23:00:00 9.9 0 Calma 8 Sudeste 0 -- -- 85
2020-11-08 22:00:00 10.6 0 Calma 5 Sudeste 0 -- -- 83
2020-11-08 21:00:00 11.4 2 Oeste 6 Noroeste 0 -- -- 84
2020-11-08 20:00:00 12.1 3 Nordeste 9 Nordeste 0 -- -- 83
2020-11-08 19:00:00 13 2 Nordeste 6 Este 0 -- -- 81
2020-11-08 18:00:00 14.5 5 Este 6 Este 0 -- -- 75
2020-11-08 17:00:00 15.2 3 Nordeste 5 Sudeste 0 -- -- 69
2020-11-08 16:00:00 15.6 3 Sur 12 Sudoeste 0 -- -- 67
2020-11-08 15:00:00 15 3 Oeste 12 Oeste 0 -- -- 69
2020-11-08 14:00:00 14.7 6 Oeste 17 Oeste 0 -- -- 71
2020-11-08 13:00:00 14.5 5 Oeste 10 Oeste 0 -- -- 76
2020-11-08 12:00:00 13.3 2 Oeste 6 Oeste 0 -- -- 80
2020-11-08 11:00:00 11.3 0 Calma 5 Noroeste 0 -- -- 90
2020-11-08 10:00:00 9.6 3 Noroeste 5 Noroeste 0 -- -- 97
2020-11-08 09:00:00 7.9 0 Calma 3 Sudeste 0 -- -- 96
2020-11-08 08:00:00 6.2 0 Calma 4 Noroeste 0 -- -- 95
2020-11-08 07:00:00 7.4 0 Calma 4 Nordeste 0 -- -- 95
2020-11-08 06:00:00 7.7 4 Nordeste 9 Nordeste 0 -- -- 95
2020-11-08 05:00:00 8.2 4 Nordeste 6 Norte 0 -- -- 95
2020-11-08 04:00:00 7.5 0 Calma 5 Noroeste 0 -- -- 94
2020-11-08 03:00:00 8.1 3 Nordeste 10 Nordeste 0 -- -- 94
2020-11-08 02:00:00 7.5 3 Nordeste 8 Nordeste 0 -- -- 94
2020-11-08 01:00:00 7.4 4 Nordeste 5 Nordeste 0 -- -- 92
2020-11-08 00:00:00 8.7 0 Calma 10 Sur 0 -- -- 87
2020-11-07 23:00:00 9.6 4 Sur 9 Sur 0 -- -- 88
2020-11-07 22:00:00 10.3 6 Sur 10 Sur 0 -- -- 85
2020-11-07 21:00:00 11.1 6 Sur 13 Sur 0 -- -- 83
2020-11-07 20:00:00 12.1 6 Sur 20 Sur 0 -- -- 82
2020-11-07 19:00:00 13.1 8 Sudoeste 27 Sudoeste 0 -- -- 80
2020-11-07 18:00:00 14.2 9 Sudoeste 26 Sur 0 -- -- 75
2020-11-07 17:00:00 15.7 14 Sudoeste 32 Sudoeste 0 -- -- 71
2020-11-07 16:00:00 15.1 15 Sudoeste 28 Sudoeste 0 -- -- 75
2020-11-07 15:00:00 15.3 15 Sudoeste 23 Sudoeste 0 -- -- 72
2020-11-07 14:00:00 13.9 15 Sudoeste 25 Sudoeste 0 -- -- 81
2020-11-07 13:00:00 14.2 17 Sudoeste 31 Sudoeste 0 -- -- 79
2020-11-07 12:00:00 13.9 16 Sudoeste 31 Sudoeste 0.2 -- -- 78
2020-11-07 11:00:00 14 15 Sur 28 Sur 0 -- -- 77
2020-11-07 10:00:00 13 9 Sur 20 Sur 0 -- -- 84
2020-11-07 09:00:00 12.3 8 Sur 24 Sur 0 -- -- 89
2020-11-07 08:00:00 12.1 9 Sur 22 Sur 0 -- -- 89
2020-11-07 07:00:00 12 11 Sur 21 Sur 0.2 -- -- 92
2020-11-07 06:00:00 11.5 2 Nordeste 9 Nordeste 0 -- -- 94
2020-11-07 05:00:00 11.7 4 Este 10 Norte 0 -- -- 93
2020-11-07 04:00:00 12 8 Este 13 Este 1.6 -- -- 93
2020-11-07 03:00:00 12.6 10 Sudoeste 29 Sudoeste 6 -- -- 92
2020-11-07 02:00:00 14 14 Sudoeste 24 Sudoeste 3.4 -- -- 87
2020-11-07 01:00:00 15.7 19 Sur 40 Sudeste 0.6 -- -- 80
2020-11-07 00:00:00 17.1 21 Sudeste 43 Sudeste 0 -- -- 68
2020-11-06 23:00:00 17.3 24 Sudeste 48 Sudeste 0 -- -- 67
2020-11-06 22:00:00 17.5 23 Sudeste 41 Sudeste 0 -- -- 66
2020-11-06 21:00:00 18 22 Sur 48 Sudeste 0 -- -- 62
2020-11-06 20:00:00 18.4 26 Sudeste 55 Sudeste 0 -- -- 61
2020-11-06 19:00:00 18.4 32 Sudeste 57 Sudeste 0 -- -- 61
2020-11-06 18:00:00 18.8 27 Sudeste 55 Sudeste 0 -- -- 61
2020-11-06 17:00:00 19.5 36 Sudeste 64 Sudeste 0 -- -- 58
2020-11-06 16:00:00 19.9 37 Sudeste 67 Sudeste 0 -- -- 57
2020-11-06 15:00:00 20.2 38 Sudeste 66 Sudeste 0.2 -- -- 58
2020-11-06 14:00:00 20.7 35 Sudeste 66 Sudeste 0 -- -- 57
2020-11-06 13:00:00 21.1 31 Sudeste 57 Sudeste 0 -- -- 59
2020-11-06 12:00:00 20.1 25 Sudeste 52 Sudeste 0 -- -- 60
2020-11-06 11:00:00 18.4 22 Sudeste 42 Sudeste 0 -- -- 65
2020-11-06 10:00:00 16.5 10 Sudeste 28 Este 0 -- -- 75
2020-11-06 09:00:00 12.1 10 Nordeste 19 Nordeste 0 -- -- 90
2020-11-06 08:00:00 9.2 2 Nordeste 7 Nordeste 0 -- -- 92
2020-11-06 07:00:00 9.7 5 Este 17 Este 0 -- -- 91
2020-11-06 06:00:00 9.8 3 Noroeste 11 Nordeste 0 -- -- 92
2020-11-06 05:00:00 10.7 8 Nordeste 18 Nordeste 0 -- -- 88
2020-11-06 04:00:00 10.1 6 Nordeste 8 Nordeste 0 -- -- 89
2020-11-06 03:00:00 11.4 8 Nordeste 18 Este 0 -- -- 85
2020-11-06 02:00:00 12.3 9 Este 20 Este 0 -- -- 85
2020-11-06 01:00:00 12.6 6 Norte 27 Sudeste 0 -- -- 82
2020-11-06 00:00:00 12.7 10 Sudeste 22 Sudeste 0 -- -- 84
2020-11-05 23:00:00 11.7 8 Nordeste 18 Nordeste 0 -- -- 87
2020-11-05 22:00:00 12.4 12 Nordeste 22 Nordeste 0 -- -- 87
2020-11-05 21:00:00 12.6 3 Nordeste 30 Norte 0 -- -- 85
2020-11-05 20:00:00 13.1 12 Este 48 Este 0 -- -- 84
2020-11-05 19:00:00 12.7 19 Este 38 Este 0.4 -- -- 87
2020-11-05 18:00:00 12.4 15 Nordeste 21 Nordeste 3.8 -- -- 95
2020-11-05 17:00:00 12.7 6 Nordeste 18 Norte 2.2 -- -- 93
2020-11-05 16:00:00 12.9 11 Nordeste 20 Sudeste 0.6 -- -- 92
2020-11-05 15:00:00 13.5 17 Sudeste 41 Sudeste 1.4 -- -- 85
2020-11-05 14:00:00 15.6 18 Sudeste 35 Sudeste 0 -- -- 72
2020-11-05 13:00:00 14.8 18 Este 45 Este 0 -- -- 75
2020-11-05 12:00:00 13.8 17 Este 37 Este 0 -- -- 82
2020-11-05 11:00:00 11.1 15 Nordeste 27 Nordeste 0.4 -- -- 90
2020-11-05 10:00:00 9.6 18 Nordeste 28 Nordeste 0.6 -- -- 90
2020-11-05 09:00:00 9.4 13 Nordeste 25 Nordeste 0.2 -- -- 88
2020-11-05 08:00:00 9.1 18 Nordeste 27 Nordeste 0 -- -- 85
2020-11-05 07:00:00 9 18 Nordeste 29 Nordeste 0 -- -- 84
2020-11-05 06:00:00 9 18 Nordeste 27 Nordeste 0 -- -- 86
2020-11-05 05:00:00 8.8 16 Nordeste 25 Nordeste 0 -- -- 86
2020-11-05 04:00:00 8.5 13 Nordeste 28 Nordeste 0 -- -- 88
2020-11-05 03:00:00 8.3 18 Nordeste 26 Nordeste 0 -- -- 88
2020-11-05 02:00:00 8.1 17 Nordeste 27 Nordeste 0 -- -- 88
2020-11-05 01:00:00 7.9 18 Nordeste 28 Nordeste 0 -- -- 89
2020-11-05 00:00:00 8 14 Nordeste 27 Nordeste 0.8 -- -- 90
2020-11-04 23:00:00 8.3 19 Nordeste 28 Nordeste 0.2 -- -- 90
2020-11-04 22:00:00 8.4 18 Nordeste 26 Nordeste 0.6 -- -- 90
2020-11-04 21:00:00 8.7 14 Nordeste 23 Nordeste 0.6 -- -- 90
2020-11-04 20:00:00 9 13 Nordeste 28 Nordeste 0 -- -- 89
2020-11-04 19:00:00 9.2 18 Nordeste 27 Nordeste 0.6 -- -- 89
2020-11-04 18:00:00 9.5 15 Nordeste 26 Nordeste 1 -- -- 89
2020-11-04 17:00:00 10.3 13 Nordeste 22 Nordeste 0.8 -- -- 88
2020-11-04 16:00:00 10.5 12 Nordeste 25 Nordeste 0.2 -- -- 85
2020-11-04 15:00:00 11.4 15 Nordeste 24 Nordeste 0 -- -- 76
2020-11-04 14:00:00 12.3 15 Nordeste 24 Este 0 -- -- 71
2020-11-04 13:00:00 12 17 Nordeste 25 Nordeste 0 -- -- 69
2020-11-04 12:00:00 11.8 18 Nordeste 28 Nordeste 0 -- -- 69
2020-11-04 11:00:00 9.6 22 Nordeste 34 Nordeste 0 -- -- 74
2020-11-04 10:00:00 8.1 23 Nordeste 34 Nordeste 0 -- -- 75
2020-11-04 09:00:00 7.8 21 Nordeste 34 Nordeste 0 -- -- 75
2020-11-04 08:00:00 7.3 15 Nordeste 28 Nordeste 0 -- -- 82
2020-11-04 07:00:00 7.7 17 Nordeste 31 Nordeste 0 -- -- 80
2020-11-04 06:00:00 8.1 17 Nordeste 30 Nordeste 0 -- -- 80
2020-11-04 05:00:00 8.4 17 Nordeste 26 Nordeste 0 -- -- 79
2020-11-04 04:00:00 8.9 17 Nordeste 24 Nordeste 0 -- -- 80
2020-11-04 03:00:00 9 11 Nordeste 26 Nordeste 0 -- -- 81
2020-11-04 02:00:00 9.4 15 Nordeste 28 Nordeste 0 -- -- 79
2020-11-04 01:00:00 9.8 18 Nordeste 34 Nordeste 0 -- -- 78
2020-11-04 00:00:00 10.3 18 Nordeste 27 Nordeste 0 -- -- 78
2020-11-03 23:00:00 10.6 15 Nordeste 26 Nordeste 0 -- -- 80
2020-11-03 22:00:00 10.8 16 Nordeste 28 Nordeste 0 -- -- 81
2020-11-03 21:00:00 10.8 19 Nordeste 31 Nordeste 0 -- -- 80
2020-11-03 20:00:00 10.9 17 Nordeste 31 Nordeste 0 -- -- 82
2020-11-03 19:00:00 10.9 16 Nordeste 38 Nordeste 0 -- -- 83
2020-11-03 18:00:00 11.1 24 Nordeste 35 Nordeste 0 -- -- 85
2020-11-03 17:00:00 11.5 18 Nordeste 36 Nordeste 0.8 -- -- 90
2020-11-03 16:00:00 12.2 23 Nordeste 38 Nordeste 1.2 -- -- 90
2020-11-03 15:00:00 14.4 17 Nordeste 28 Nordeste 1.4 -- -- 90
2020-11-03 14:00:00 15.4 6 Nordeste 17 Norte 0.4 -- -- 90
2020-11-03 13:00:00 15.3 6 Norte 19 Este 0.4 -- -- 90
2020-11-03 12:00:00 15 10 Nordeste 17 Nordeste 0.2 -- -- 88
2020-11-03 11:00:00 15.6 12 Norte 17 Nordeste 0 -- -- 80
2020-11-03 10:00:00 14.4 8 Este 15 Este 0 -- -- 85
2020-11-03 09:00:00 13.2 4 Este 9 Noroeste 0 -- -- 91
2020-11-03 08:00:00 12 3 Sudoeste 9 Oeste 0 -- -- 91
2020-11-03 07:00:00 12.3 5 Norte 12 Nordeste 0 -- -- 92
2020-11-03 06:00:00 11.6 2 Sudeste 8 Nordeste 0 -- -- 92
2020-11-03 05:00:00 11.5 4 Nordeste 8 Nordeste 0 -- -- 92
2020-11-03 04:00:00 11.8 0 Calma 7 Nordeste 0 -- -- 91
2020-11-03 03:00:00 12 0 Calma 7 Este 0 -- -- 90
2020-11-03 02:00:00 12.2 5 Nordeste 8 Noroeste 0 -- -- 90
2020-11-03 01:00:00 12.6 0 Calma 6 Este 0 -- -- 87
2020-11-03 00:00:00 13.8 4 Norte 9 Norte 0 -- -- 86
2020-11-02 23:00:00 13.8 2 Nordeste 4 Nordeste 0 -- -- 84
2020-11-02 22:00:00 14.3 0 Calma 4 Nordeste 0 -- -- 83
2020-11-02 21:00:00 15.2 3 Nordeste 5 Norte 0 -- -- 79
2020-11-02 20:00:00 15.7 0 Calma 3 Sur 0 -- -- 77
2020-11-02 19:00:00 17.3 3 Sudoeste 6 Sudoeste 0 -- -- 70
2020-11-02 18:00:00 19.2 3 Sudoeste 12 Sudoeste 0 -- -- 63
2020-11-02 17:00:00 20.9 8 Oeste 13 Sudoeste 0 -- -- 56
2020-11-02 16:00:00 20.3 8 Oeste 13 Oeste 0 -- -- 57
2020-11-02 15:00:00 19.5 8 Oeste 14 Oeste 0 -- -- 62
2020-11-02 14:00:00 19.9 10 Oeste 16 Oeste 0 -- -- 62
2020-11-02 13:00:00 19.5 6 Oeste 14 Oeste 0 -- -- 62
2020-11-02 12:00:00 17.4 0 Calma 5 Noroeste 0 -- -- 69
2020-11-02 11:00:00 14.7 0 Calma 10 Nordeste 0 -- -- 77
2020-11-02 10:00:00 11.5 7 Nordeste 11 Nordeste 0 -- -- 89
2020-11-02 09:00:00 9.4 5 Este 9 Este 0 -- -- 96
2020-11-02 08:00:00 7.3 5 Este 9 Nordeste 0 -- -- 96
2020-11-02 07:00:00 6.5 3 Este 9 Nordeste 0 -- -- 95
2020-11-02 06:00:00 7 6 Nordeste 8 Nordeste 0 -- -- 96
2020-11-02 05:00:00 7.2 4 Nordeste 6 Este 0 -- -- 95
2020-11-02 04:00:00 7.4 4 Nordeste 6 Nordeste 0 -- -- 94
2020-11-02 03:00:00 7.9 4 Este 7 Nordeste 0 -- -- 94
2020-11-02 02:00:00 8.4 5 Nordeste 7 Nordeste 0 -- -- 93
2020-11-02 01:00:00 8.7 5 Nordeste 8 Nordeste 0 -- -- 93
2020-11-02 00:00:00 8.8 4 Este 5 Nordeste 0 -- -- 90
2020-11-01 23:00:00 9.6 4 Nordeste 5 Este 0 -- -- 89
2020-11-01 22:00:00 10.5 4 Nordeste 5 Nordeste 0 -- -- 88
2020-11-01 21:00:00 11.9 4 Nordeste 6 Nordeste 0 -- -- 82
2020-11-01 20:00:00 13.3 4 Nordeste 6 Nordeste 0 -- -- 80
2020-11-01 19:00:00 14.7 2 Este 3 Este 0 -- -- 76
2020-11-01 18:00:00 18.9 2 Sudoeste 12 Noroeste 0 -- -- 63
2020-11-01 17:00:00 20.6 6 Oeste 10 Oeste 0 -- -- 56
2020-11-01 16:00:00 21.1 6 Oeste 12 Oeste 0 -- -- 55
2020-11-01 15:00:00 21.3 8 Oeste 14 Oeste 0 -- -- 54
2020-11-01 14:00:00 20.4 10 Oeste 15 Oeste 0 -- -- 58
2020-11-01 13:00:00 19 7 Oeste 14 Oeste 0 -- -- 66
2020-11-01 12:00:00 16.4 0 Calma 7 Nordeste 0 -- -- 71
2020-11-01 11:00:00 14 4 Nordeste 8 Nordeste 0 -- -- 79
2020-11-01 10:00:00 11.4 5 Nordeste 10 Nordeste 0 -- -- 86
2020-11-01 09:00:00 8.6 0 Calma 9 Nordeste 0 -- -- 95
2020-11-01 08:00:00 6.7 4 Este 10 Nordeste 0 -- -- 94
2020-11-01 07:00:00 7 6 Nordeste 9 Nordeste 0 -- -- 94
2020-11-01 06:00:00 7 3 Nordeste 10 Este 0 -- -- 94
2020-11-01 05:00:00 7.4 3 Nordeste 9 Nordeste 0 -- -- 94
2020-11-01 04:00:00 7.7 6 Este 9 Este 0 -- -- 94
2020-11-01 03:00:00 8.1 5 Nordeste 8 Este 0 -- -- 93
2020-11-01 02:00:00 8.3 4 Nordeste 7 Este 0 -- -- 92
2020-11-01 01:00:00 9.1 4 Nordeste 8 Este 0 -- -- 92
2020-11-01 00:00:00 9.6 5 Nordeste 10 Nordeste 0 -- -- 91
2020-10-31 23:00:00 9.8 4 Este 10 Nordeste 0 -- -- 89
2020-10-31 22:00:00 10.4 8 Nordeste 11 Nordeste 0 -- -- 89
2020-10-31 21:00:00 11.7 4 Nordeste 6 Nordeste 0 -- -- 85
2020-10-31 20:00:00 13.3 5 Nordeste 6 Nordeste 0 -- -- 79
2020-10-31 19:00:00 15.8 2 Sudoeste 6 Sur 0 -- -- 70
2020-10-31 18:00:00 20.3 0 Calma 15 Sudoeste 0 -- -- 56
2020-10-31 17:00:00 22.6 6 Oeste 11 Oeste 0 -- -- 48
2020-10-31 16:00:00 22.1 9 Sudoeste 17 Oeste 0 -- -- 49
2020-10-31 15:00:00 21.9 9 Oeste 18 Oeste 0 -- -- 52
2020-10-31 14:00:00 21 4 Oeste 8 Oeste 0 -- -- 54
2020-10-31 13:00:00 19.4 4 Sudeste 8 Sudeste 0 -- -- 59
2020-10-31 12:00:00 16.2 3 Norte 12 Nordeste 0 -- -- 66
2020-10-31 11:00:00 13.4 6 Este 14 Nordeste 0 -- -- 76
2020-10-31 10:00:00 10.3 9 Este 17 Nordeste 0 -- -- 84
2020-10-31 09:00:00 7.9 10 Nordeste 15 Nordeste 0 -- -- 93
2020-10-31 08:00:00 5.8 6 Nordeste 10 Nordeste 0 -- -- 95
2020-10-31 07:00:00 6 5 Nordeste 11 Nordeste 0 -- -- 94
2020-10-31 06:00:00 6.2 4 Nordeste 11 Nordeste 0 -- -- 94
2020-10-31 05:00:00 6.6 6 Nordeste 11 Nordeste 0 -- -- 94
2020-10-31 04:00:00 6.6 4 Nordeste 12 Nordeste 0 -- -- 93
2020-10-31 03:00:00 7.2 5 Este 10 Nordeste 0 -- -- 93
2020-10-31 02:00:00 7.8 6 Nordeste 11 Este 0 -- -- 93
2020-10-31 01:00:00 8.3 6 Nordeste 13 Nordeste 0 -- -- 92
2020-10-31 00:00:00 8.5 7 Nordeste 10 Nordeste 0 -- -- 93
2020-10-30 23:00:00 8.1 4 Este 9 Nordeste 0 -- -- 89
2020-10-30 22:00:00 8.9 7 Nordeste 8 Nordeste 0 -- -- 89
2020-10-30 21:00:00 10 3 Nordeste 6 Nordeste 0 -- -- 84
2020-10-30 20:00:00 11.5 5 Nordeste 7 Nordeste 0 -- -- 82
2020-10-30 19:00:00 13.9 0 Calma 3 Sudeste 0 -- -- 75
2020-10-30 18:00:00 18.9 2 Oeste 9 Oeste 0 -- -- 58
2020-10-30 17:00:00 20.4 3 Oeste 10 Sudoeste 0 -- -- 53
2020-10-30 16:00:00 20.4 7 Oeste 14 Oeste 0 -- -- 53
2020-10-30 15:00:00 19.8 5 Oeste 11 Oeste 0 -- -- 57
2020-10-30 14:00:00 18.6 2 Sudeste 8 Sudeste 0 -- -- 62
2020-10-30 13:00:00 16.1 2 Norte 10 Nordeste 0 -- -- 66
2020-10-30 12:00:00 13.1 6 Este 15 Norte 0 -- -- 76
2020-10-30 11:00:00 10.4 10 Este 15 Nordeste 0 -- -- 84
2020-10-30 10:00:00 7.8 10 Nordeste 15 Este 0 -- -- 91
2020-10-30 09:00:00 5.8 10 Nordeste 18 Nordeste 0 -- -- 95
2020-10-30 08:00:00 4.5 6 Nordeste 12 Este 0 -- -- 95
2020-10-30 07:00:00 4.8 9 Nordeste 14 Nordeste 0 -- -- 95
2020-10-30 06:00:00 5 8 Nordeste 14 Este 0 -- -- 95
2020-10-30 05:00:00 5.3 8 Nordeste 14 Este 0 -- -- 95
2020-10-30 04:00:00 5.6 9 Nordeste 13 Nordeste 0 -- -- 96
2020-10-30 03:00:00 5.6 8 Nordeste 11 Nordeste 0 -- -- 96
2020-10-30 02:00:00 5.2 6 Nordeste 9 Nordeste 0 -- -- 95
2020-10-30 01:00:00 4.9 5 Este 5 Este 0 -- -- 94
2020-10-30 00:00:00 5.6 2 Nordeste 4 Nordeste 0 -- -- 92
2020-10-29 23:00:00 6.5 3 Nordeste 7 Nordeste 0 -- -- 92
2020-10-29 22:00:00 7.3 3 Nordeste 6 Nordeste 0 -- -- 90
2020-10-29 21:00:00 8.5 4 Nordeste 7 Nordeste 0 -- -- 89
2020-10-29 20:00:00 9.9 2 Nordeste 4 Sur 0 -- -- 84
2020-10-29 19:00:00 12.5 3 Sur 8 Oeste 0 -- -- 76
2020-10-29 18:00:00 15.9 5 Oeste 10 Sudoeste 0 -- -- 65
2020-10-29 17:00:00 17.5 3 Sudoeste 8 Sudoeste 0 -- -- 59
2020-10-29 16:00:00 17 6 Sudoeste 14 Oeste 0 -- -- 61
2020-10-29 15:00:00 16.9 7 Sudoeste 12 Sudoeste 0 -- -- 61
2020-10-29 14:00:00 15.5 4 Oeste 13 Sur 0 -- -- 65
2020-10-29 13:00:00 14.6 6 Norte 12 Noroeste 0 -- -- 68
2020-10-29 12:00:00 14 4 Noroeste 8 Noroeste 0 -- -- 71
2020-10-29 11:00:00 13.4 0 Calma 8 Este 0 -- -- 76
2020-10-29 10:00:00 12.6 7 Nordeste 15 Nordeste 0 -- -- 85
2020-10-29 09:00:00 11.9 6 Nordeste 10 Nordeste 0 -- -- 88
2020-10-29 08:00:00 11.4 5 Este 8 Nordeste 0 -- -- 89
2020-10-29 07:00:00 11.5 4 Nordeste 11 Nordeste 0 -- -- 89
2020-10-29 06:00:00 11.6 3 Nordeste 5 Nordeste 0 -- -- 91
2020-10-29 05:00:00 11.6 0 Calma 3 Nordeste 0 -- -- 92
2020-10-29 04:00:00 11.7 0 Calma 0 Calma 0 -- -- 91
2020-10-29 03:00:00 11.7 0 Calma 5 Nordeste 0 -- -- 91
2020-10-29 02:00:00 11.9 4 Nordeste 8 Este 0 -- -- 90
2020-10-29 01:00:00 12.1 0 Calma 10 Norte 0 -- -- 88
2020-10-29 00:00:00 12.2 2 Norte 3 Norte 0 -- -- 89
2020-10-28 23:00:00 12.3 0 Calma 4 Este 0 -- -- 88
2020-10-28 22:00:00 12.5 0 Calma 4 Norte 0 -- -- 88
2020-10-28 21:00:00 12.6 0 Calma 5 Norte 0 -- -- 87
2020-10-28 20:00:00 12.6 3 Norte 6 Norte 0 -- -- 86
2020-10-28 19:00:00 12.8 4 Norte 11 Norte 0 -- -- 85
2020-10-28 18:00:00 13 5 Norte 10 Noroeste 0 -- -- 84
2020-10-28 17:00:00 13.3 6 Oeste 12 Oeste 0 -- -- 83
2020-10-28 16:00:00 13.4 8 Sudoeste 13 Sudoeste 0 -- -- 84
2020-10-28 15:00:00 13.2 3 Sudoeste 8 Oeste 0 -- -- 82
2020-10-28 14:00:00 12.9 6 Oeste 11 Oeste 0 -- -- 83
2020-10-28 13:00:00 12.7 3 Oeste 14 Sudoeste 0 -- -- 86
2020-10-28 12:00:00 11.8 8 Sudoeste 13 Sudoeste 0 -- -- 90
2020-10-28 11:00:00 11 2 Sudoeste 6 Sudoeste 0 -- -- 94
2020-10-28 10:00:00 10.1 0 Calma 4 Nordeste 0 -- -- 96
2020-10-28 09:00:00 8.6 3 Nordeste 6 Nordeste 0 -- -- 96
2020-10-28 08:00:00 7.4 3 Nordeste 5 Nordeste 0 -- -- 96
2020-10-28 07:00:00 6.4 3 Nordeste 4 Este 0 -- -- 96
2020-10-28 06:00:00 5 2 Norte 5 Nordeste 0 -- -- 95
2020-10-28 05:00:00 5.2 4 Nordeste 6 Nordeste 0 -- -- 94
2020-10-28 04:00:00 5.7 4 Nordeste 7 Nordeste 0 -- -- 93
2020-10-28 03:00:00 6.3 0 Calma 4 Norte 0 -- -- 92
2020-10-28 02:00:00 7.1 0 Calma 3 Nordeste 0 -- -- 90
2020-10-28 01:00:00 8.8 0 Calma 9 Sur 0 -- -- 87
2020-10-28 00:00:00 9.5 5 Sur 10 Sur 0 -- -- 84
2020-10-27 23:00:00 9.6 5 Sur 8 Sur 0 -- -- 84
2020-10-27 22:00:00 10.1 2 Sudoeste 9 Sur 0 -- -- 81
2020-10-27 21:00:00 11 4 Sur 10 Sur 0 -- -- 76
2020-10-27 20:00:00 11.3 5 Sur 14 Sudoeste 0 -- -- 73
2020-10-27 19:00:00 11.7 5 Sudoeste 15 Sur 0 -- -- 68
2020-10-27 18:00:00 13.4 8 Sudoeste 25 Sudoeste 0 -- -- 63
2020-10-27 17:00:00 15.4 13 Sudoeste 26 Sudoeste 0 -- -- 57
2020-10-27 16:00:00 15.9 12 Sudoeste 24 Sudoeste 0 -- -- 54
2020-10-27 15:00:00 15.4 14 Sudoeste 28 Sudoeste 0 -- -- 56
2020-10-27 14:00:00 15.1 14 Sudoeste 28 Sudoeste 0 -- -- 57
2020-10-27 13:00:00 14.3 9 Sudoeste 21 Sudoeste 0 -- -- 59
2020-10-27 12:00:00 12.1 4 Sudoeste 18 Sudoeste 0 -- -- 64
2020-10-27 11:00:00 10.4 7 Sudoeste 12 Sudoeste 0 -- -- 70
2020-10-27 10:00:00 8 3 Oeste 6 Oeste 0 -- -- 83
2020-10-27 09:00:00 5.5 4 Nordeste 6 Nordeste 0 -- -- 96
2020-10-27 08:00:00 -- -- -- -- -- 0 -- -- --
2020-10-27 07:00:00 -- -- -- -- -- 0 -- -- --
2020-10-27 06:00:00 -- -- -- -- -- 0 -- -- --
2020-10-27 05:00:00 -- -- -- -- -- 0 -- -- --
2020-10-27 04:00:00 -- -- -- -- -- 0 -- -- --
2020-10-27 03:00:00 -- -- -- -- -- 0 -- -- --
2020-10-27 02:00:00 -- -- -- -- -- 0 -- -- --
2020-10-27 01:00:00 -- -- -- -- -- 0 -- -- --
2020-10-27 00:00:00 -- -- -- -- -- 0 -- -- --
2020-10-26 23:00:00 -- -- -- -- -- 0 -- -- --
2020-10-26 22:00:00 5.4 3 Sur 7 Sur 0 -- -- 81
2020-10-26 21:00:00 6.8 4 Sudoeste 10 Sudoeste 0 -- -- 75
2020-10-26 20:00:00 7.8 3 Sur 6 Sudoeste 0 -- -- 76
2020-10-26 19:00:00 10.5 3 Sudoeste 20 Oeste 0 -- -- 65
2020-10-26 18:00:00 12.7 4 Oeste 14 Noroeste 0 -- -- 55
2020-10-26 17:00:00 12.7 7 Oeste 22 Oeste 0 -- -- 53
2020-10-26 16:00:00 12.9 16 Sudoeste 25 Oeste 0 -- -- 53
2020-10-26 15:00:00 14 11 Oeste 22 Oeste 0 -- -- 49
2020-10-26 14:00:00 12.9 8 Sudoeste 18 Oeste 0 -- -- 52
2020-10-26 13:00:00 12.4 12 Oeste 19 Sudoeste 0 -- -- 57
2020-10-26 12:00:00 12.1 9 Sudoeste 19 Oeste 0 -- -- 62
2020-10-26 11:00:00 11.3 5 Oeste 12 Oeste 0 -- -- 61
2020-10-26 10:00:00 9.4 6 Sudoeste 13 Sudoeste 0 -- -- 74
2020-10-26 09:00:00 6.5 5 Sudoeste 8 Sur 0 -- -- 89
2020-10-26 08:00:00 -- -- -- -- -- 0 -- -- --
2020-10-26 07:00:00 -- -- -- -- -- 0 -- -- --
2020-10-26 06:00:00 -- -- -- -- -- 0 -- -- --
2020-10-26 05:00:00 -- -- -- -- -- 0 -- -- --
2020-10-26 04:00:00 -- -- -- -- -- 0 -- -- --
2020-10-26 03:00:00 -- -- -- -- -- 0 -- -- --
2020-10-26 02:00:00 -- -- -- -- -- 0 -- -- --
2020-10-26 01:00:00 -- -- -- -- -- 0 -- -- --
2020-10-26 00:00:00 -- -- -- -- -- 0 -- -- --